sensor_id;sensor_type;location;lat;lon;timestamp;temperature;humidity
15815;DHT22;8008;50.024;8.172;2023-05-08T03:02:08;16.40;99.90
15815;DHT22;8008;50.024;8.172;2023-05-08T03:04:42;16.30;99.90
15815;DHT22;8008;50.024;8.172;2023-05-08T03:07:12;16.10;99.90
15815;DHT22;8008;50.024;8.172;2023-05-08T03:09:43;16.20;99.90
15815;DHT22;8008;50.024;8.172;2023-05-08T03:12:13;16.20;99.90
15815;DHT22;8008;50.024;8.172;2023-05-08T03:14:45;16.10;99.90
15815;DHT22;8008;50.024;8.172;2023-05-08T03:17:17;16.10;99.90
15815;DHT22;8008;50.024;8.172;2023-05-08T03:19:50;16.10;99.90
15815;DHT22;8008;50.024;8.172;2023-05-08T03:22:20;16.10;99.90
15815;DHT22;8008;50.024;8.172;2023-05-08T03:24:50;16.10;99.90
15815;DHT22;8008;50.024;8.172;2023-05-08T03:29:49;16.10;99.90
15815;DHT22;8008;50.024;8.172;2023-05-08T03:32:21;16.00;99.90
15815;DHT22;8008;50.024;8.172;2023-05-08T03:34:51;16.00;99.90
15815;DHT22;8008;50.024;8.172;2023-05-08T03:37:20;16.10;99.90
15815;DHT22;8008;50.024;8.172;2023-05-08T03:39:50;16.00;99.90
15815;DHT22;8008;50.024;8.172;2023-05-08T03:42:18;16.00;99.90
15815;DHT22;8008;50.024;8.172;2023-05-08T03:44:49;16.10;99.90
15815;DHT22;8008;50.024;8.172;2023-05-08T03:47:18;16.00;99.90
15815;DHT22;8008;50.024;8.172;2023-05-08T03:49:48;16.00;99.90
15815;DHT22;8008;50.024;8.172;2023-05-08T03:52:17;15.90;99.90
15815;DHT22;8008;50.024;8.172;2023-05-08T03:54:45;15.80;99.90
15815;DHT22;8008;50.024;8.172;2023-05-08T03:57:13;15.80;99.90
15815;DHT22;8008;50.024;8.172;2023-05-08T03:59:49;15.80;99.90
15815;DHT22;8008;50.024;8.172;2023-05-08T04:02:24;15.80;99.90
15815;DHT22;8008;50.024;8.172;2023-05-08T04:05:06;15.80;99.90
15815;DHT22;8008;50.024;8.172;2023-05-08T04:07:40;15.80;99.90
15815;DHT22;8008;50.024;8.172;2023-05-08T04:10:15;15.70;99.90
15815;DHT22;8008;50.024;8.172;2023-05-08T04:12:49;15.70;99.90
15815;DHT22;8008;50.024;8.172;2023-05-08T04:15:23;15.60;99.90
15815;DHT22;8008;50.024;8.172;2023-05-08T04:17:54;15.60;99.90
15815;DHT22;8008;50.024;8.172;2023-05-08T04:20:26;15.60;99.90
15815;DHT22;8008;50.024;8.172;2023-05-08T04:22:58;15.60;99.90
15815;DHT22;8008;50.024;8.172;2023-05-08T04:25:27;15.60;99.90
15815;DHT22;8008;50.024;8.172;2023-05-08T04:27:57;15.50;99.90
15815;DHT22;8008;50.024;8.172;2023-05-08T04:30:27;15.60;99.90
15815;DHT22;8008;50.024;8.172;2023-05-08T04:32:55;15.50;99.90
15815;DHT22;8008;50.024;8.172;2023-05-08T04:35:27;15.60;99.90
15815;DHT22;8008;50.024;8.172;2023-05-08T04:37:55;15.60;99.90
15815;DHT22;8008;50.024;8.172;2023-05-08T04:40:23;15.50;99.90
15815;DHT22;8008;50.024;8.172;2023-05-08T04:42:52;15.60;99.90
15815;DHT22;8008;50.024;8.172;2023-05-08T04:45:21;15.60;99.90
15815;DHT22;8008;50.024;8.172;2023-05-08T04:47:49;15.60;99.90
15815;DHT22;8008;50.024;8.172;2023-05-08T04:50:18;15.60;99.90
15815;DHT22;8008;50.024;8.172;2023-05-08T04:52:47;15.70;99.90
15815;DHT22;8008;50.024;8.172;2023-05-08T04:55:16;15.60;99.90
15815;DHT22;8008;50.024;8.172;2023-05-08T04:57:45;15.60;99.90
15815;DHT22;8008;50.024;8.172;2023-05-08T05:00:14;15.60;99.90
15815;DHT22;8008;50.024;8.172;2023-05-08T05:02:44;15.50;99.90
15815;DHT22;8008;50.024;8.172;2023-05-08T05:05:12;15.50;99.90
15815;DHT22;8008;50.024;8.172;2023-05-08T05:07:41;15.50;99.90
15815;DHT22;8008;50.024;8.172;2023-05-08T05:10:11;15.40;99.90
15815;DHT22;8008;50.024;8.172;2023-05-08T05:12:39;15.40;99.90
15815;DHT22;8008;50.024;8.172;2023-05-08T05:15:08;15.40;99.90
15815;DHT22;8008;50.024;8.172;2023-05-08T05:17:38;15.40;99.90
15815;DHT22;8008;50.024;8.172;2023-05-08T05:20:07;15.40;99.90
15815;DHT22;8008;50.024;8.172;2023-05-08T05:22:35;15.40;99.90
15815;DHT22;8008;50.024;8.172;2023-05-08T05:25:04;15.40;99.90
15815;DHT22;8008;50.024;8.172;2023-05-08T05:27:35;15.40;99.90
15815;DHT22;8008;50.024;8.172;2023-05-08T05:30:05;15.50;99.90
15815;DHT22;8008;50.024;8.172;2023-05-08T05:32:33;15.50;99.90
15815;DHT22;8008;50.024;8.172;2023-05-08T05:35:02;15.50;99.90
15815;DHT22;8008;50.024;8.172;2023-05-08T05:37:30;15.50;99.90
15815;DHT22;8008;50.024;8.172;2023-05-08T05:39:57;15.50;99.90
15815;DHT22;8008;50.024;8.172;2023-05-08T05:42:25;15.50;99.90
15815;DHT22;8008;50.024;8.172;2023-05-08T05:44:55;15.50;99.90
15815;DHT22;8008;50.024;8.172;2023-05-08T05:47:24;15.50;99.90
15815;DHT22;8008;50.024;8.172;2023-05-08T05:49:52;15.50;99.90
15815;DHT22;8008;50.024;8.172;2023-05-08T05:52:20;15.50;99.90
15815;DHT22;8008;50.024;8.172;2023-05-08T05:54:48;15.50;99.90
15815;DHT22;8008;50.024;8.172;2023-05-08T05:57:16;15.50;99.90
15815;DHT22;8008;50.024;8.172;2023-05-08T05:59:45;15.60;99.90
15815;DHT22;8008;50.024;8.172;2023-05-08T06:02:14;15.50;99.90
15815;DHT22;8008;50.024;8.172;2023-05-08T06:04:45;15.50;99.90
15815;DHT22;8008;50.024;8.172;2023-05-08T06:07:15;15.50;99.90
15815;DHT22;8008;50.024;8.172;2023-05-08T06:09:43;15.50;99.90
15815;DHT22;8008;50.024;8.172;2023-05-08T06:12:11;15.50;99.90
15815;DHT22;8008;50.024;8.172;2023-05-08T06:14:39;15.60;99.90
15815;DHT22;8008;50.024;8.172;2023-05-08T06:17:07;15.50;99.90
15815;DHT22;8008;50.024;8.172;2023-05-08T06:19:37;15.50;99.90
15815;DHT22;8008;50.024;8.172;2023-05-08T06:22:04;15.50;99.90
15815;DHT22;8008;50.024;8.172;2023-05-08T06:24:32;15.60;99.90
15815;DHT22;8008;50.024;8.172;2023-05-08T06:27:01;15.60;99.90
15815;DHT22;8008;50.024;8.172;2023-05-08T06:29:29;15.60;99.90
15815;DHT22;8008;50.024;8.172;2023-05-08T06:31:57;15.60;99.90
15815;DHT22;8008;50.024;8.172;2023-05-08T06:34:25;15.60;99.90
15815;DHT22;8008;50.024;8.172;2023-05-08T06:36:54;15.70;99.90
15815;DHT22;8008;50.024;8.172;2023-05-08T06:39:22;15.60;99.90
15815;DHT22;8008;50.024;8.172;2023-05-08T06:41:50;15.70;99.90
15815;DHT22;8008;50.024;8.172;2023-05-08T06:44:27;15.70;99.90
15815;DHT22;8008;50.024;8.172;2023-05-08T06:46:55;15.70;99.90
15815;DHT22;8008;50.024;8.172;2023-05-08T06:49:23;15.70;99.90
15815;DHT22;8008;50.024;8.172;2023-05-08T06:51:51;15.70;99.90
15815;DHT22;8008;50.024;8.172;2023-05-08T06:54:23;15.80;99.90
15815;DHT22;8008;50.024;8.172;2023-05-08T06:56:51;15.80;99.90
15815;DHT22;8008;50.024;8.172;2023-05-08T06:59:19;15.80;99.90
15815;DHT22;8008;50.024;8.172;2023-05-08T07:01:48;15.70;99.90
15815;DHT22;8008;50.024;8.172;2023-05-08T07:04:16;15.80;99.90
15815;DHT22;8008;50.024;8.172;2023-05-08T07:06:44;15.80;99.90
15815;DHT22;8008;50.024;8.172;2023-05-08T07:09:12;15.70;99.90
15815;DHT22;8008;50.024;8.172;2023-05-08T07:11:43;15.70;99.90
15815;DHT22;8008;50.024;8.172;2023-05-08T07:14:10;15.80;99.90
15815;DHT22;8008;50.024;8.172;2023-05-08T07:16:39;15.90;99.90
15815;DHT22;8008;50.024;8.172;2023-05-08T07:19:07;15.90;99.90
15815;DHT22;8008;50.024;8.172;2023-05-08T07:21:34;15.90;99.90
15815;DHT22;8008;50.024;8.172;2023-05-08T07:24:03;15.90;99.90
15815;DHT22;8008;50.024;8.172;2023-05-08T07:26:31;15.90;99.90
15815;DHT22;8008;50.024;8.172;2023-05-08T07:29:00;16.00;99.90
15815;DHT22;8008;50.024;8.172;2023-05-08T07:31:28;16.10;99.90
15815;DHT22;8008;50.024;8.172;2023-05-08T07:33:56;16.10;99.90
15815;DHT22;8008;50.024;8.172;2023-05-08T07:36:24;16.10;99.90
15815;DHT22;8008;50.024;8.172;2023-05-08T07:38:52;16.20;99.90
15815;DHT22;8008;50.024;8.172;2023-05-08T07:41:20;16.30;99.90
15815;DHT22;8008;50.024;8.172;2023-05-08T07:43:48;16.30;99.90
15815;DHT22;8008;50.024;8.172;2023-05-08T07:46:17;16.40;99.90
15815;DHT22;8008;50.024;8.172;2023-05-08T07:48:45;16.40;99.90
15815;DHT22;8008;50.024;8.172;2023-05-08T07:51:14;16.50;99.90
15815;DHT22;8008;50.024;8.172;2023-05-08T07:53:42;16.40;99.90
15815;DHT22;8008;50.024;8.172;2023-05-08T07:56:10;16.40;99.90
15815;DHT22;8008;50.024;8.172;2023-05-08T07:58:38;16.40;99.90
15815;DHT22;8008;50.024;8.172;2023-05-08T08:01:08;16.50;99.90
15815;DHT22;8008;50.024;8.172;2023-05-08T08:03:37;16.50;99.90
15815;DHT22;8008;50.024;8.172;2023-05-08T08:06:05;16.50;99.90
15815;DHT22;8008;50.024;8.172;2023-05-08T08:08:33;16.70;99.90
15815;DHT22;8008;50.024;8.172;2023-05-08T08:11:01;16.70;99.90
15815;DHT22;8008;50.024;8.172;2023-05-08T08:13:29;16.80;99.90
15815;DHT22;8008;50.024;8.172;2023-05-08T08:15:58;16.90;99.90
15815;DHT22;8008;50.024;8.172;2023-05-08T08:18:26;17.00;99.90
15815;DHT22;8008;50.024;8.172;2023-05-08T08:20:55;17.10;99.90
15815;DHT22;8008;50.024;8.172;2023-05-08T08:23:23;17.10;99.90
15815;DHT22;8008;50.024;8.172;2023-05-08T08:25:51;17.10;99.90
15815;DHT22;8008;50.024;8.172;2023-05-08T08:28:19;17.10;99.90
15815;DHT22;8008;50.024;8.172;2023-05-08T08:30:47;17.00;99.90
15815;DHT22;8008;50.024;8.172;2023-05-08T08:33:15;17.10;99.90
15815;DHT22;8008;50.024;8.172;2023-05-08T08:35:44;17.00;99.90
15815;DHT22;8008;50.024;8.172;2023-05-08T08:38:14;17.00;99.90
15815;DHT22;8008;50.024;8.172;2023-05-08T08:40:42;16.80;99.90
15815;DHT22;8008;50.024;8.172;2023-05-08T08:43:10;16.90;99.90
15815;DHT22;8008;50.024;8.172;2023-05-08T08:45:38;16.90;99.90
15815;DHT22;8008;50.024;8.172;2023-05-08T08:48:09;16.90;99.90
15815;DHT22;8008;50.024;8.172;2023-05-08T08:50:42;16.90;99.90
15815;DHT22;8008;50.024;8.172;2023-05-08T08:53:23;16.90;99.90
15815;DHT22;8008;50.024;8.172;2023-05-08T08:55:54;16.80;99.90
15815;DHT22;8008;50.024;8.172;2023-05-08T08:58:28;16.80;99.90
15815;DHT22;8008;50.024;8.172;2023-05-08T09:00:59;16.80;99.90
15815;DHT22;8008;50.024;8.172;2023-05-08T09:03:29;16.80;99.90
15815;DHT22;8008;50.024;8.172;2023-05-08T09:05:58;16.70;99.90
15815;DHT22;8008;50.024;8.172;2023-05-08T09:08:28;16.70;99.90
15815;DHT22;8008;50.024;8.172;2023-05-08T09:10:56;16.70;99.90
15815;DHT22;8008;50.024;8.172;2023-05-08T09:13:24;16.70;99.90
15815;DHT22;8008;50.024;8.172;2023-05-08T09:15:53;16.70;99.90
15815;DHT22;8008;50.024;8.172;2023-05-08T09:18:21;16.70;99.90
15815;DHT22;8008;50.024;8.172;2023-05-08T09:20:49;16.60;99.90
15815;DHT22;8008;50.024;8.172;2023-05-08T09:23:17;16.60;99.90
15815;DHT22;8008;50.024;8.172;2023-05-08T09:25:48;16.60;99.90
15815;DHT22;8008;50.024;8.172;2023-05-08T09:28:17;16.60;99.90
15815;DHT22;8008;50.024;8.172;2023-05-08T09:30:49;16.70;99.90
15815;DHT22;8008;50.024;8.172;2023-05-08T09:33:18;16.60;99.90
15815;DHT22;8008;50.024;8.172;2023-05-08T09:35:46;16.70;99.90
15815;DHT22;8008;50.024;8.172;2023-05-08T09:38:35;16.70;99.90
15815;DHT22;8008;50.024;8.172;2023-05-08T09:41:08;16.70;99.90
15815;DHT22;8008;50.024;8.172;2023-05-08T09:43:37;16.70;99.90
15815;DHT22;8008;50.024;8.172;2023-05-08T09:46:21;16.80;99.90
15815;DHT22;8008;50.024;8.172;2023-05-08T09:48:51;16.80;99.90
15815;DHT22;8008;50.024;8.172;2023-05-08T09:51:20;16.90;99.90
15815;DHT22;8008;50.024;8.172;2023-05-08T09:53:49;17.00;99.90
15815;DHT22;8008;50.024;8.172;2023-05-08T09:56:33;17.10;99.90
15815;DHT22;8008;50.024;8.172;2023-05-08T09:59:03;17.30;99.90
15815;DHT22;8008;50.024;8.172;2023-05-08T10:01:33;17.30;99.90
15815;DHT22;8008;50.024;8.172;2023-05-08T10:04:02;17.40;99.90
15815;DHT22;8008;50.024;8.172;2023-05-08T10:06:31;17.60;99.90
15815;DHT22;8008;50.024;8.172;2023-05-08T10:09:10;17.50;99.90
15815;DHT22;8008;50.024;8.172;2023-05-08T10:11:48;17.50;99.90
15815;DHT22;8008;50.024;8.172;2023-05-08T10:14:18;17.50;99.90
15815;DHT22;8008;50.024;8.172;2023-05-08T10:16:47;17.60;99.90
15815;DHT22;8008;50.024;8.172;2023-05-08T10:19:17;17.60;99.90
15815;DHT22;8008;50.024;8.172;2023-05-08T10:21:46;17.70;99.90
15815;DHT22;8008;50.024;8.172;2023-05-08T10:24:16;17.70;99.90
15815;DHT22;8008;50.024;8.172;2023-05-08T10:26:54;17.70;99.90
15815;DHT22;8008;50.024;8.172;2023-05-08T10:29:40;17.90;99.90
15815;DHT22;8008;50.024;8.172;2023-05-08T10:32:09;18.00;99.90
15815;DHT22;8008;50.024;8.172;2023-05-08T10:34:39;18.00;99.90
15815;DHT22;8008;50.024;8.172;2023-05-08T10:37:08;18.10;99.90
15815;DHT22;8008;50.024;8.172;2023-05-08T10:39:37;18.10;99.90
15815;DHT22;8008;50.024;8.172;2023-05-08T10:42:07;18.10;99.90
15815;DHT22;8008;50.024;8.172;2023-05-08T10:44:35;18.10;99.90
15815;DHT22;8008;50.024;8.172;2023-05-08T10:47:09;18.30;99.90
15815;DHT22;8008;50.024;8.172;2023-05-08T10:49:44;18.20;99.90
15815;DHT22;8008;50.024;8.172;2023-05-08T10:52:17;18.30;99.90
15815;DHT22;8008;50.024;8.172;2023-05-08T10:55:08;18.30;99.90
15815;DHT22;8008;50.024;8.172;2023-05-08T10:58:01;18.30;99.90
15815;DHT22;8008;50.024;8.172;2023-05-08T11:00:31;18.20;99.90
15815;DHT22;8008;50.024;8.172;2023-05-08T11:03:07;18.30;99.90
15815;DHT22;8008;50.024;8.172;2023-05-08T11:05:54;18.20;99.90
15815;DHT22;8008;50.024;8.172;2023-05-08T11:08:24;18.10;99.90
15815;DHT22;8008;50.024;8.172;2023-05-08T11:11:04;18.20;99.90
15815;DHT22;8008;50.024;8.172;2023-05-08T11:13:35;18.20;99.90
15815;DHT22;8008;50.024;8.172;2023-05-08T11:16:04;18.20;99.90
15815;DHT22;8008;50.024;8.172;2023-05-08T11:18:33;18.10;99.90
15815;DHT22;8008;50.024;8.172;2023-05-08T11:21:19;18.10;99.90
15815;DHT22;8008;50.024;8.172;2023-05-08T11:23:55;18.00;99.90
15815;DHT22;8008;50.024;8.172;2023-05-08T11:26:39;18.00;99.90
15815;DHT22;8008;50.024;8.172;2023-05-08T11:29:16;18.00;99.90
15815;DHT22;8008;50.024;8.172;2023-05-08T11:31:50;18.00;99.90
15815;DHT22;8008;50.024;8.172;2023-05-08T11:34:44;18.00;99.90
15815;DHT22;8008;50.024;8.172;2023-05-08T11:37:16;18.00;99.90
15815;DHT22;8008;50.024;8.172;2023-05-08T11:39:44;18.00;99.90
15815;DHT22;8008;50.024;8.172;2023-05-08T11:42:34;18.00;99.90
15815;DHT22;8008;50.024;8.172;2023-05-08T11:45:06;18.10;99.90
15815;DHT22;8008;50.024;8.172;2023-05-08T11:47:38;18.00;99.90
15815;DHT22;8008;50.024;8.172;2023-05-08T11:50:09;18.20;99.90
15815;DHT22;8008;50.024;8.172;2023-05-08T11:52:39;18.20;99.90
15815;DHT22;8008;50.024;8.172;2023-05-08T11:55:08;18.30;99.90
15815;DHT22;8008;50.024;8.172;2023-05-08T11:57:37;18.20;99.90
15815;DHT22;8008;50.024;8.172;2023-05-08T12:00:07;18.30;99.90
15815;DHT22;8008;50.024;8.172;2023-05-08T12:02:37;18.30;99.90
15815;DHT22;8008;50.024;8.172;2023-05-08T12:05:07;18.20;99.90
15815;DHT22;8008;50.024;8.172;2023-05-08T12:07:41;18.10;99.90
15815;DHT22;8008;50.024;8.172;2023-05-08T12:10:10;18.10;99.90
15815;DHT22;8008;50.024;8.172;2023-05-08T12:12:39;18.10;99.90
15815;DHT22;8008;50.024;8.172;2023-05-08T12:15:10;18.20;99.90
15815;DHT22;8008;50.024;8.172;2023-05-08T12:17:38;18.30;99.90
15815;DHT22;8008;50.024;8.172;2023-05-08T12:20:10;18.40;99.90
15815;DHT22;8008;50.024;8.172;2023-05-08T12:22:40;18.40;99.90
15815;DHT22;8008;50.024;8.172;2023-05-08T12:25:10;18.30;99.90
15815;DHT22;8008;50.024;8.172;2023-05-08T12:27:38;18.20;99.90
15815;DHT22;8008;50.024;8.172;2023-05-08T12:30:09;18.20;99.90
15815;DHT22;8008;50.024;8.172;2023-05-08T12:32:40;18.20;99.90
15815;DHT22;8008;50.024;8.172;2023-05-08T12:35:09;18.30;99.90
15815;DHT22;8008;50.024;8.172;2023-05-08T12:37:38;18.20;99.90
15815;DHT22;8008;50.024;8.172;2023-05-08T12:40:07;18.20;99.90
15815;DHT22;8008;50.024;8.172;2023-05-08T12:42:46;18.10;99.90
15815;DHT22;8008;50.024;8.172;2023-05-08T12:45:19;18.20;99.90
15815;DHT22;8008;50.024;8.172;2023-05-08T12:47:49;18.30;99.90
15815;DHT22;8008;50.024;8.172;2023-05-08T12:50:20;18.30;99.90
15815;DHT22;8008;50.024;8.172;2023-05-08T12:52:48;18.30;99.90
15815;DHT22;8008;50.024;8.172;2023-05-08T12:55:22;18.20;99.90
15815;DHT22;8008;50.024;8.172;2023-05-08T12:57:57;18.30;99.90
15815;DHT22;8008;50.024;8.172;2023-05-08T13:00:33;18.20;99.90
15815;DHT22;8008;50.024;8.172;2023-05-08T13:03:02;18.30;99.90
15815;DHT22;8008;50.024;8.172;2023-05-08T13:05:30;18.30;99.90
15815;DHT22;8008;50.024;8.172;2023-05-08T13:07:59;18.40;99.90
15815;DHT22;8008;50.024;8.172;2023-05-08T13:10:45;18.40;99.90
15815;DHT22;8008;50.024;8.172;2023-05-08T13:13:15;18.50;99.90
15815;DHT22;8008;50.024;8.172;2023-05-08T13:15:44;18.50;99.90
15815;DHT22;8008;50.024;8.172;2023-05-08T13:18:12;18.50;99.90
15815;DHT22;8008;50.024;8.172;2023-05-08T13:20:40;18.50;99.90
15815;DHT22;8008;50.024;8.172;2023-05-08T13:23:09;18.50;99.90
15815;DHT22;8008;50.024;8.172;2023-05-08T13:25:38;18.50;99.90
15815;DHT22;8008;50.024;8.172;2023-05-08T13:28:07;18.50;99.90
15815;DHT22;8008;50.024;8.172;2023-05-08T13:30:36;18.50;99.90
15815;DHT22;8008;50.024;8.172;2023-05-08T13:33:06;18.60;99.90
15815;DHT22;8008;50.024;8.172;2023-05-08T13:35:34;18.60;99.90
15815;DHT22;8008;50.024;8.172;2023-05-08T13:38:02;18.50;99.90
15815;DHT22;8008;50.024;8.172;2023-05-08T13:40:31;18.50;99.90
15815;DHT22;8008;50.024;8.172;2023-05-08T13:42:59;18.40;99.90
15815;DHT22;8008;50.024;8.172;2023-05-08T13:45:27;18.40;99.90
15815;DHT22;8008;50.024;8.172;2023-05-08T13:47:54;18.40;99.90
15815;DHT22;8008;50.024;8.172;2023-05-08T13:50:24;18.50;99.90
15815;DHT22;8008;50.024;8.172;2023-05-08T13:52:52;18.50;99.90
15815;DHT22;8008;50.024;8.172;2023-05-08T13:55:21;18.50;99.90
15815;DHT22;8008;50.024;8.172;2023-05-08T13:57:50;18.60;99.90
15815;DHT22;8008;50.024;8.172;2023-05-08T14:00:18;18.70;99.90
15815;DHT22;8008;50.024;8.172;2023-05-08T14:02:46;18.80;99.90
15815;DHT22;8008;50.024;8.172;2023-05-08T14:05:18;18.90;99.90
15815;DHT22;8008;50.024;8.172;2023-05-08T14:07:48;18.90;99.90
15815;DHT22;8008;50.024;8.172;2023-05-08T14:10:15;18.90;99.90
15815;DHT22;8008;50.024;8.172;2023-05-08T14:12:43;18.90;99.90
15815;DHT22;8008;50.024;8.172;2023-05-08T14:15:12;19.00;99.90
15815;DHT22;8008;50.024;8.172;2023-05-08T14:17:40;19.00;99.90
15815;DHT22;8008;50.024;8.172;2023-05-08T14:20:09;19.00;99.90
15815;DHT22;8008;50.024;8.172;2023-05-08T14:22:38;19.10;99.90
15815;DHT22;8008;50.024;8.172;2023-05-08T14:25:08;19.30;99.90
15815;DHT22;8008;50.024;8.172;2023-05-08T14:27:36;19.30;99.90
15815;DHT22;8008;50.024;8.172;2023-05-08T14:30:06;19.40;99.90
15815;DHT22;8008;50.024;8.172;2023-05-08T14:32:34;19.40;99.90
15815;DHT22;8008;50.024;8.172;2023-05-08T14:35:01;19.40;99.90
15815;DHT22;8008;50.024;8.172;2023-05-08T14:37:29;19.50;99.90
15815;DHT22;8008;50.024;8.172;2023-05-08T14:39:57;19.50;99.90
15815;DHT22;8008;50.024;8.172;2023-05-08T14:42:27;19.50;99.90
15815;DHT22;8008;50.024;8.172;2023-05-08T14:44:55;19.50;99.90
15815;DHT22;8008;50.024;8.172;2023-05-08T14:47:23;19.40;99.90
15815;DHT22;8008;50.024;8.172;2023-05-08T14:49:51;19.40;99.90
15815;DHT22;8008;50.024;8.172;2023-05-08T14:52:20;19.40;99.90
15815;DHT22;8008;50.024;8.172;2023-05-08T14:54:47;19.40;99.90
15815;DHT22;8008;50.024;8.172;2023-05-08T14:57:39;19.30;99.90
15815;DHT22;8008;50.024;8.172;2023-05-08T15:00:08;19.30;99.90
15815;DHT22;8008;50.024;8.172;2023-05-08T15:02:36;19.30;99.90
15815;DHT22;8008;50.024;8.172;2023-05-08T15:05:05;19.20;99.90
15815;DHT22;8008;50.024;8.172;2023-05-08T15:07:43;19.20;99.90
15815;DHT22;8008;50.024;8.172;2023-05-08T15:10:11;19.20;99.90
15815;DHT22;8008;50.024;8.172;2023-05-08T15:12:40;19.30;99.90
15815;DHT22;8008;50.024;8.172;2023-05-08T15:15:08;19.30;99.90
15815;DHT22;8008;50.024;8.172;2023-05-08T15:17:36;19.30;99.90
15815;DHT22;8008;50.024;8.172;2023-05-08T15:20:07;19.30;99.90
15815;DHT22;8008;50.024;8.172;2023-05-08T15:22:36;19.30;99.90
15815;DHT22;8008;50.024;8.172;2023-05-08T15:25:04;19.40;99.90
15815;DHT22;8008;50.024;8.172;2023-05-08T15:27:33;19.50;99.90
15815;DHT22;8008;50.024;8.172;2023-05-08T15:30:02;19.50;99.90
15815;DHT22;8008;50.024;8.172;2023-05-08T15:32:30;19.70;99.90
15815;DHT22;8008;50.024;8.172;2023-05-08T15:34:58;19.90;99.90
15815;DHT22;8008;50.024;8.172;2023-05-08T15:37:26;19.90;99.90
15815;DHT22;8008;50.024;8.172;2023-05-08T15:39:54;19.80;99.90
15815;DHT22;8008;50.024;8.172;2023-05-08T15:42:23;19.80;99.90
15815;DHT22;8008;50.024;8.172;2023-05-08T15:44:54;19.70;99.90
15815;DHT22;8008;50.024;8.172;2023-05-08T15:47:24;19.80;99.90
15815;DHT22;8008;50.024;8.172;2023-05-08T15:49:52;19.90;99.90
15815;DHT22;8008;50.024;8.172;2023-05-08T15:52:20;19.90;99.90
15815;DHT22;8008;50.024;8.172;2023-05-08T15:54:49;19.90;99.90
15815;DHT22;8008;50.024;8.172;2023-05-08T15:57:17;20.10;99.90
15815;DHT22;8008;50.024;8.172;2023-05-08T15:59:45;20.20;99.90
15815;DHT22;8008;50.024;8.172;2023-05-08T16:02:13;20.30;99.90
15815;DHT22;8008;50.024;8.172;2023-05-08T16:04:42;20.40;99.90
15815;DHT22;8008;50.024;8.172;2023-05-08T16:07:10;20.50;99.90
15815;DHT22;8008;50.024;8.172;2023-05-08T16:09:38;20.60;99.90
15815;DHT22;8008;50.024;8.172;2023-05-08T16:12:06;20.80;99.90
15815;DHT22;8008;50.024;8.172;2023-05-08T16:14:34;20.90;99.90
15815;DHT22;8008;50.024;8.172;2023-05-08T16:17:02;20.90;99.90
15815;DHT22;8008;50.024;8.172;2023-05-08T16:19:36;20.80;99.90
15815;DHT22;8008;50.024;8.172;2023-05-08T16:22:05;20.60;99.90
15815;DHT22;8008;50.024;8.172;2023-05-08T16:24:33;20.60;99.90
15815;DHT22;8008;50.024;8.172;2023-05-08T16:27:01;20.60;99.90
15815;DHT22;8008;50.024;8.172;2023-05-08T16:29:29;20.40;99.90
15815;DHT22;8008;50.024;8.172;2023-05-08T16:31:57;20.20;99.90
15815;DHT22;8008;50.024;8.172;2023-05-08T16:34:25;20.30;99.90
15815;DHT22;8008;50.024;8.172;2023-05-08T16:36:52;20.40;99.90
15815;DHT22;8008;50.024;8.172;2023-05-08T16:39:22;20.60;99.90
15815;DHT22;8008;50.024;8.172;2023-05-08T16:41:50;20.70;99.90
15815;DHT22;8008;50.024;8.172;2023-05-08T16:44:17;20.80;99.90
15815;DHT22;8008;50.024;8.172;2023-05-08T16:46:45;20.90;99.90
15815;DHT22;8008;50.024;8.172;2023-05-08T16:49:13;20.90;99.90
15815;DHT22;8008;50.024;8.172;2023-05-08T16:51:41;20.80;99.90
15815;DHT22;8008;50.024;8.172;2023-05-08T16:54:09;20.70;99.90
15815;DHT22;8008;50.024;8.172;2023-05-08T16:56:38;20.50;99.90
15815;DHT22;8008;50.024;8.172;2023-05-08T16:59:06;20.40;99.90
15815;DHT22;8008;50.024;8.172;2023-05-08T17:01:34;20.20;99.90
15815;DHT22;8008;50.024;8.172;2023-05-08T17:04:02;20.10;99.90
15815;DHT22;8008;50.024;8.172;2023-05-08T17:06:30;20.00;99.90
15815;DHT22;8008;50.024;8.172;2023-05-08T17:08:58;19.80;99.90
15815;DHT22;8008;50.024;8.172;2023-05-08T17:11:26;19.80;99.90
15815;DHT22;8008;50.024;8.172;2023-05-08T17:13:55;19.80;99.90
15815;DHT22;8008;50.024;8.172;2023-05-08T17:16:23;19.70;99.90
15815;DHT22;8008;50.024;8.172;2023-05-08T17:18:51;19.60;99.90
15815;DHT22;8008;50.024;8.172;2023-05-08T17:21:19;19.50;99.90
15815;DHT22;8008;50.024;8.172;2023-05-08T17:23:47;19.50;99.90
15815;DHT22;8008;50.024;8.172;2023-05-08T17:26:15;19.50;99.90
15815;DHT22;8008;50.024;8.172;2023-05-08T17:28:43;19.40;99.90
15815;DHT22;8008;50.024;8.172;2023-05-08T17:31:12;19.40;99.90
15815;DHT22;8008;50.024;8.172;2023-05-08T17:33:41;19.40;99.90
15815;DHT22;8008;50.024;8.172;2023-05-08T17:36:09;19.40;99.90
15815;DHT22;8008;50.024;8.172;2023-05-08T17:38:37;19.30;99.90
15815;DHT22;8008;50.024;8.172;2023-05-08T17:41:11;19.30;99.90
15815;DHT22;8008;50.024;8.172;2023-05-08T17:43:39;19.30;99.90
15815;DHT22;8008;50.024;8.172;2023-05-08T17:46:07;19.30;99.90
15815;DHT22;8008;50.024;8.172;2023-05-08T17:48:36;19.30;99.90
15815;DHT22;8008;50.024;8.172;2023-05-08T17:51:04;19.20;99.90
15815;DHT22;8008;50.024;8.172;2023-05-08T17:53:32;19.20;99.90
15815;DHT22;8008;50.024;8.172;2023-05-08T17:56:00;19.10;99.90
15815;DHT22;8008;50.024;8.172;2023-05-08T17:58:27;19.10;99.90
15815;DHT22;8008;50.024;8.172;2023-05-08T18:00:56;19.00;99.90
15815;DHT22;8008;50.024;8.172;2023-05-08T18:03:24;18.90;99.90
15815;DHT22;8008;50.024;8.172;2023-05-08T18:05:53;18.90;99.90
15815;DHT22;8008;50.024;8.172;2023-05-08T18:08:21;18.80;99.90
15815;DHT22;8008;50.024;8.172;2023-05-08T18:10:49;18.80;99.90
15815;DHT22;8008;50.024;8.172;2023-05-08T18:13:17;18.70;99.90
15815;DHT22;8008;50.024;8.172;2023-05-08T18:15:45;18.70;99.90
15815;DHT22;8008;50.024;8.172;2023-05-08T18:18:12;18.60;99.90
15815;DHT22;8008;50.024;8.172;2023-05-08T18:20:41;18.50;99.90
15815;DHT22;8008;50.024;8.172;2023-05-08T18:23:10;18.50;99.90
15815;DHT22;8008;50.024;8.172;2023-05-08T18:25:38;18.50;99.90
15815;DHT22;8008;50.024;8.172;2023-05-08T18:28:07;18.50;99.90
15815;DHT22;8008;50.024;8.172;2023-05-08T18:30:35;18.50;99.90
15815;DHT22;8008;50.024;8.172;2023-05-08T18:33:05;18.50;99.90
15815;DHT22;8008;50.024;8.172;2023-05-08T18:35:33;18.50;99.90
15815;DHT22;8008;50.024;8.172;2023-05-08T18:38:01;18.40;99.90
15815;DHT22;8008;50.024;8.172;2023-05-08T18:40:30;18.40;99.90
15815;DHT22;8008;50.024;8.172;2023-05-08T18:42:58;18.30;99.90
15815;DHT22;8008;50.024;8.172;2023-05-08T18:45:26;18.30;99.90
15815;DHT22;8008;50.024;8.172;2023-05-08T18:47:54;18.20;99.90
15815;DHT22;8008;50.024;8.172;2023-05-08T18:50:23;18.20;99.90
15815;DHT22;8008;50.024;8.172;2023-05-08T18:52:51;18.20;99.90
15815;DHT22;8008;50.024;8.172;2023-05-08T18:55:19;18.20;99.90
15815;DHT22;8008;50.024;8.172;2023-05-08T18:57:48;18.10;99.90
15815;DHT22;8008;50.024;8.172;2023-05-08T19:00:17;18.10;99.90
15815;DHT22;8008;50.024;8.172;2023-05-08T19:02:45;18.00;99.90
15815;DHT22;8008;50.024;8.172;2023-05-08T19:05:13;18.00;99.90